Sarah Desgagnes — XJAB — position and weather

sailwx.info

Track history (hours):
 
Tides and Currents Weather Stations Pressure Air Temp Water Temp Dewpoint Dewpoint Depression Visibility Wind Speed Wind Dir Waves Ship Positions

Sarah Desgagnes

Last reported at 2015-Jul-19 15:19 UTC. Time now 2015-Jul-30 04:08 UTC.
Position N 51°26' W 056°38'.
Warning: this ship's position is 10 days out of date.

Length 148 m; draft 9.4 m.

Type: Tanker. MMSI: 316012308.

Date/timePositionNaut miles runAvg speedWind from/ knotsBaromVisibWave heightAir tempDewpointWater temp
2015-Jul-19 15:19N 51°26' W 056°38'1012.6
2015-Jul-19 14:33N 51°21' W 056°51'1312.8
2015-Jul-19 13:33N 51°14' W 057°08'1413.5
2015-Jul-19 12:33N 51°06' W 057°26'  
2015-Jul-12 12:33N 46°41' W 071°52'1515.3
2015-Jul-12 11:34N 46°32' W 072°10'1414.2
2015-Jul-12 10:33N 46°23' W 072°26'1212.2
2015-Jul-12 09:33N 46°16' W 072°41'5810.9
2015-Jul-12 04:14N 45°30' W 073°31'1 1.6
2015-Jul-12 03:33N 45°29' W 073°30'4 4.3
2015-Jul-12 02:32N 45°24' W 073°33'2 1.9
2015-Jul-12 01:31N 45°24' W 073°35'5 5.6
2015-Jul-12 00:33N 45°24' W 073°43'1010.1
2015-Jul-11 23:33N 45°19' W 073°55'1 0.9
2015-Jul-11 22:33N 45°18' W 073°56'5 5.2
2015-Jul-11 21:33N 45°14' W 074°00'269 7.6
2015-Jul-10 10:08N 42°49' W 079°16'813.4
2015-Jul-10 09:33N 42°45' W 079°25'1414.2
2015-Jul-10 08:33N 42°36' W 079°40'1514.6
2015-Jul-10 07:33N 42°28' W 079°56'  
Track history (hours):
 
Tides and Currents Weather Stations Pressure Air Temp Water Temp Dewpoint Dewpoint Depression Visibility Wind Speed Wind Dir Waves Ship Positions

Sarah Desgagnes

Last reported at 2015-Jul-19 15:19 UTC. Time now 2015-Jul-30 04:08 UTC.
Position N 51°26' W 056°38'.
Warning: this ship's position is 10 days out of date.

Length 148 m; draft 9.4 m.

Type: Tanker. MMSI: 316012308.

Date/timePositionNaut miles runAvg speedWind from/ knotsBaromVisibWave heightAir tempDewpointWater temp
2015-Jul-19 15:19N 51°26' W 056°38'1012.6
2015-Jul-19 14:33N 51°21' W 056°51'1312.8
2015-Jul-19 13:33N 51°14' W 057°08'1413.5
2015-Jul-19 12:33N 51°06' W 057°26'  
2015-Jul-12 12:33N 46°41' W 071°52'1515.3
2015-Jul-12 11:34N 46°32' W 072°10'1414.2
2015-Jul-12 10:33N 46°23' W 072°26'1212.2
2015-Jul-12 09:33N 46°16' W 072°41'5810.9
2015-Jul-12 04:14N 45°30' W 073°31'1 1.6
2015-Jul-12 03:33N 45°29' W 073°30'4 4.3
2015-Jul-12 02:32N 45°24' W 073°33'2 1.9
2015-Jul-12 01:31N 45°24' W 073°35'5 5.6
2015-Jul-12 00:33N 45°24' W 073°43'1010.1
2015-Jul-11 23:33N 45°19' W 073°55'1 0.9
2015-Jul-11 22:33N 45°18' W 073°56'5 5.2
2015-Jul-11 21:33N 45°14' W 074°00'269 7.6
2015-Jul-10 10:08N 42°49' W 079°16'813.4
2015-Jul-10 09:33N 42°45' W 079°25'1414.2
2015-Jul-10 08:33N 42°36' W 079°40'1514.6
2015-Jul-10 07:33N 42°28' W 079°56'  

Dump ship's entire track history